Terminal Aerodrome Forecast
Issued by NWS Twin Cities, MN

Home | Current Version | Previous Version | Graphics & Text | Print | Product List | Glossary On
Versions: 1 2 3 4 5 6 7 8 9 10 11 12 13 14 15 16 17 18 19 20 21 22 23
000
FTUS43 KMPX 201500 AAA
TAFEAU
TAF AMD
KEAU 201520Z 2015/2112 10004KT P6SM BKN007
     FM201700 10005KT P6SM SCT250
     FM210500 13007KT P6SM VCSH SCT015 BKN070
      TEMPO 2107/2110 4SM TSRA SCT008 OVC050CB
     FM211000 12009KT 3SM BR SCT003 BKN020=

USA.gov is the U.S. government's official web portal to all federal, state and local government web resources and services.